Panorama WebCam JadeWeserAirport, sowie die WebCams Emden - Wangerooge - Leer-Papenburg - Langeoog - Baltrum - Juist - Borkum -

Die Wetterinformationen haben nur informativen Charakter und dürfen nicht zum Zwecke der Flugplanung benutzt werden.

METAR EDWI 270820Z AUTO 12003KT 6000 NSC 07/// Q1026=
METAR ETNT 270820Z VRB03KT 9000 SCT220 07/07 Q1026 BLU+BLU+
METAR ETMN 270820Z VRB03KT 9999 SCT270 09/08 Q1026 BLU+BLU+
 

Die WebCams auf Helgoland finden sie hier. WebCams Helgoland